Time;durP1;ratioP1;P1;durP2;ratioP2;P2;SDS_P1;SDS_P2;PMS_P1;PMS_P2;Temp;Humidity;BMP_temperature;BMP_pressure;BME280_temperature;BME280_humidity;BME280_pressure;Samples;Min_cycle;Max_cycle;Signal;HPM_P1;HPM_P2
2022/11/23 00:03:53;;;;;;;5.47;2.10;;;8.20;99.90;;;;;;2610601;54;20983;-80
2022/11/23 00:09:41;;;;;;;8.17;2.47;;;8.10;99.90;;;;;;2612750;39;20816;-79
2022/11/23 00:15:28;;;;;;;6.00;2.90;;;8.20;99.90;;;;;;2614098;46;20548;-78
2022/11/23 00:25:01;;;;;;;5.33;2.23;;;8.20;99.90;;;;;;2613572;54;20391;-81
2022/11/23 00:30:50;;;;;;;5.30;2.93;;;8.40;99.90;;;;;;2610593;54;20400;-81
2022/11/23 00:33:17;;;;;;;4.30;2.30;;;8.40;99.90;;;;;;2612881;47;21016;-79
2022/11/23 00:41:51;;;;;;;7.87;2.57;;;8.50;99.90;;;;;;2613236;54;20525;-79
2022/11/23 00:47:39;;;;;;;3.63;2.50;;;8.60;99.90;;;;;;2612483;54;20511;-81
2022/11/23 00:53:27;;;;;;;4.90;2.07;;;8.60;99.90;;;;;;2613784;39;20528;-80
2022/11/23 00:59:15;;;;;;;4.93;3.07;;;8.70;99.90;;;;;;2612534;54;20453;-79
2022/11/23 01:05:03;;;;;;;5.93;3.00;;;8.80;99.90;;;;;;2613670;54;20696;-80
2022/11/23 01:10:58;;;;;;;6.63;2.50;;;8.90;99.90;;;;;;2611592;54;20407;-80
2022/11/23 01:16:45;;;;;;;3.93;2.17;;;8.90;99.90;;;;;;2610136;54;20407;-79
2022/11/23 01:22:32;;;;;;;4.13;2.20;;;8.80;99.90;;;;;;2609618;39;20688;-80
2022/11/23 01:28:21;;;;;;;6.27;2.97;;;8.70;99.90;;;;;;2612264;54;20267;-79
2022/11/23 01:37:46;;;;;;;7.70;3.10;;;8.50;99.90;;;;;;2610909;39;20859;-78
2022/11/23 01:43:34;;;;;;;5.13;2.67;;;8.50;99.90;;;;;;2610938;39;20628;-80
2022/11/23 01:49:22;;;;;;;7.13;2.13;;;8.30;99.90;;;;;;2611426;54;20122;-78
2022/11/23 01:55:10;;;;;;;5.57;2.13;;;8.20;99.90;;;;;;2611719;54;20380;-79
2022/11/23 02:00:57;;;;;;;5.83;2.90;;;8.30;99.90;;;;;;2610640;54;20736;-79
2022/11/23 02:06:46;;;;;;;3.67;2.17;;;8.40;99.90;;;;;;2612967;54;20399;-76
2022/11/23 02:12:33;;;;;;;3.90;2.40;;;8.50;99.90;;;;;;2613635;54;20642;-75
2022/11/23 02:18:24;;;;;;;10.03;2.60;;;8.60;99.90;;;;;;2614315;47;20194;-76
2022/11/23 02:30:47;;;;;;;5.10;2.80;;;8.80;99.90;;;;;;2612981;39;20468;-76
2022/11/23 02:46:57;;;;;;;4.20;2.50;;;8.90;99.90;;;;;;2611023;54;20409;-80
2022/11/23 02:52:44;;;;;;;6.13;2.60;;;9.00;99.90;;;;;;2610924;54;21015;-80
2022/11/23 02:58:31;;;;;;;4.03;2.57;;;9.00;99.90;;;;;;2610934;54;20818;-80
2022/11/23 03:04:18;;;;;;;5.67;2.93;;;9.00;99.90;;;;;;2611544;54;20148;-78
2022/11/23 03:10:06;;;;;;;3.73;2.23;;;9.00;99.90;;;;;;2613195;54;20173;-76
2022/11/23 03:13:09;;;;;;;15.43;3.20;;;9.10;99.90;;;;;;2612390;54;20424;-77
2022/11/23 03:15:35;;;;;;;2.50;2.17;;;9.00;99.90;;;;;;2614486;47;20422;-76
2022/11/23 03:21:22;;;;;;;3.83;2.00;;;9.00;99.90;;;;;;2616684;54;20568;-75
2022/11/23 03:27:10;;;;;;;3.73;1.77;;;9.10;99.90;;;;;;2613543;54;20134;-77
2022/11/23 03:32:58;;;;;;;5.00;2.23;;;8.90;99.90;;;;;;2614685;54;20398;-75
2022/11/23 03:39:02;;;;;;;4.33;2.20;;;8.60;99.90;;;;;;2612516;54;20171;-76
2022/11/23 03:44:49;;;;;;;5.67;2.13;;;8.50;99.90;;;;;;2612907;54;20711;-74
2022/11/23 03:50:36;;;;;;;3.70;2.03;;;8.30;99.90;;;;;;2612373;39;20686;-74
2022/11/23 03:56:24;;;;;;;5.50;2.27;;;8.20;99.90;;;;;;2612080;54;20247;-76
2022/11/23 04:02:11;;;;;;;7.90;2.40;;;8.30;99.90;;;;;;2612876;54;20668;-76
2022/11/23 04:07:58;;;;;;;6.47;3.27;;;8.20;99.90;;;;;;2613362;54;20701;-77
2022/11/23 04:13:48;;;;;;;8.47;2.80;;;8.20;99.90;;;;;;2612160;54;20561;-75
2022/11/23 04:19:39;;;;;;;3.63;2.63;;;8.20;99.90;;;;;;2613930;54;20427;-75
2022/11/23 04:25:27;;;;;;;7.80;3.30;;;8.30;99.90;;;;;;2613949;39;20753;-75
2022/11/23 04:31:15;;;;;;;6.10;3.17;;;8.30;99.90;;;;;;2613919;54;20222;-74
2022/11/23 04:37:02;;;;;;;7.50;3.10;;;8.30;99.90;;;;;;2613227;54;20204;-74
2022/11/23 04:42:51;;;;;;;7.17;3.40;;;8.20;99.90;;;;;;2612012;39;20644;-75
2022/11/23 04:48:39;;;;;;;8.17;4.20;;;8.20;99.90;;;;;;2613954;47;20441;-75
2022/11/23 04:54:27;;;;;;;5.80;3.50;;;8.20;99.90;;;;;;2612876;54;20122;-75
2022/11/23 05:00:15;;;;;;;10.70;3.87;;;8.20;99.90;;;;;;2613652;54;20134;-75
2022/11/23 05:06:03;;;;;;;5.40;4.00;;;8.20;99.90;;;;;;2612819;54;20805;-77
2022/11/23 05:11:51;;;;;;;9.37;3.97;;;8.20;99.90;;;;;;2614369;54;20403;-76
2022/11/23 05:17:39;;;;;;;11.10;3.60;;;8.20;99.90;;;;;;2614913;54;20130;-78
2022/11/23 05:23:26;;;;;;;8.50;3.50;;;8.20;99.90;;;;;;2614542;54;20230;-74
2022/11/23 05:29:14;;;;;;;7.13;4.03;;;8.20;99.90;;;;;;2615086;54;20142;-74
2022/11/23 05:35:01;;;;;;;6.00;3.73;;;8.20;99.90;;;;;;2613734;54;20246;-76
2022/11/23 05:40:48;;;;;;;12.73;4.00;;;8.20;99.90;;;;;;2613135;54;20326;-75
2022/11/23 05:43:48;;;;;;;7.00;3.50;;;8.20;99.90;;;;;;2612927;54;20423;-75
2022/11/23 05:49:35;;;;;;;16.53;4.30;;;8.20;99.90;;;;;;2612232;54;20495;-75
2022/11/23 05:55:22;;;;;;;5.13;2.47;;;8.20;99.90;;;;;;2611202;54;21070;-74
2022/11/23 06:04:33;;;;;;;6.30;3.57;;;8.20;99.90;;;;;;2612099;54;20388;-75
2022/11/23 06:10:21;;;;;;;6.23;3.43;;;8.30;99.90;;;;;;2610193;54;20452;-74
2022/11/23 06:16:08;;;;;;;12.87;4.07;;;8.20;99.90;;;;;;2610524;54;20431;-75
2022/11/23 06:21:56;;;;;;;7.83;3.37;;;8.30;99.90;;;;;;2614580;39;20538;-76
2022/11/23 06:27:53;;;;;;;9.90;3.00;;;8.20;99.90;;;;;;2613002;54;20387;-75
2022/11/23 06:33:41;;;;;;;5.67;3.03;;;8.20;99.90;;;;;;2609885;54;20391;-76
2022/11/23 06:43:47;;;;;;;5.57;2.87;;;8.30;99.90;;;;;;2612178;54;20402;-76
2022/11/23 06:49:35;;;;;;;7.20;3.03;;;8.20;99.90;;;;;;2612116;54;20459;-74
2022/11/23 06:55:23;;;;;;;8.83;2.87;;;8.20;99.90;;;;;;2612031;39;21045;-74
2022/11/23 07:01:11;;;;;;;7.90;3.87;;;8.20;99.90;;;;;;2610867;39;20580;-75
2022/11/23 07:06:59;;;;;;;10.83;4.30;;;8.10;99.90;;;;;;2608355;54;20182;-78
2022/11/23 07:12:46;;;;;;;8.63;3.00;;;8.10;99.90;;;;;;2610623;54;20146;-78
2022/11/23 07:18:34;;;;;;;13.43;4.20;;;8.20;99.90;;;;;;2610929;54;20138;-75
2022/11/23 07:24:22;;;;;;;8.03;3.43;;;8.10;99.90;;;;;;2614865;54;20251;-76
2022/11/23 07:30:10;;;;;;;4.47;2.37;;;8.10;99.90;;;;;;2612486;54;20168;-75
2022/11/23 07:36:02;;;;;;;8.40;3.07;;;8.20;99.90;;;;;;2612168;54;20399;-77
2022/11/23 07:39:15;;;;;;;13.90;3.50;;;8.30;99.90;;;;;;2609275;47;20450;-76
2022/11/23 07:41:41;;;;;;;9.40;4.00;;;8.30;99.90;;;;;;2610566;54;20618;-75
2022/11/23 07:47:31;;;;;;;8.17;3.57;;;8.40;99.90;;;;;;2612091;54;20176;-76
2022/11/23 07:53:19;;;;;;;8.30;3.43;;;8.50;99.90;;;;;;2610804;54;20407;-75
2022/11/23 07:59:07;;;;;;;6.03;2.83;;;8.60;99.90;;;;;;2611709;54;20395;-76
2022/11/23 08:04:55;;;;;;;6.77;2.67;;;8.70;99.90;;;;;;2613129;54;20154;-76
2022/11/23 08:10:43;;;;;;;3.87;3.00;;;8.80;99.90;;;;;;2612572;54;20151;-77
2022/11/23 08:16:30;;;;;;;3.17;2.40;;;8.90;99.90;;;;;;2613685;54;20542;-76
2022/11/23 08:22:18;;;;;;;6.47;2.80;;;9.10;99.90;;;;;;2612771;54;20178;-76
2022/11/23 08:28:11;;;;;;;7.37;3.37;;;9.20;99.90;;;;;;2613271;54;20411;-77
2022/11/23 08:34:01;;;;;;;8.40;4.13;;;9.30;99.90;;;;;;2613182;54;20494;-76
2022/11/23 08:39:49;;;;;;;4.53;3.10;;;9.90;99.90;;;;;;2613422;54;21526;-74
2022/11/23 08:45:36;;;;;;;4.23;3.17;;;10.20;99.90;;;;;;2611869;54;20138;-76
2022/11/23 08:51:23;;;;;;;8.50;4.23;;;10.90;99.90;;;;;;2611695;39;21220;-76
2022/11/23 09:00:32;;;;;;;7.00;3.53;;;10.90;99.90;;;;;;2611199;46;20443;-76
2022/11/23 09:06:25;;;;;;;7.03;3.80;;;10.90;99.90;;;;;;2613595;54;20378;-76
2022/11/23 09:12:12;;;;;;;4.73;3.80;;;10.90;99.90;;;;;;2614253;54;20381;-75
2022/11/23 09:15:16;;;;;;;5.20;3.40;;;11.20;99.90;;;;;;2615339;54;20431;-78
2022/11/23 09:17:42;;;;;;;3.73;2.90;;;11.00;99.90;;;;;;2615818;54;20159;-75
2022/11/23 09:23:32;;;;;;;8.27;3.63;;;12.00;99.90;;;;;;2615995;54;20290;-76
2022/11/23 09:29:20;;;;;;;8.97;4.40;;;13.00;89.90;;;;;;2616164;54;20371;-76
2022/11/23 09:35:08;;;;;;;6.50;3.77;;;13.60;71.20;;;;;;2617179;54;20164;-78
2022/11/23 09:45:00;;;;;;;9.67;3.83;;;15.10;51.40;;;;;;2617525;39;20795;-75
2022/11/23 09:50:51;;;;;;;10.07;4.37;;;14.30;42.50;;;;;;2617558;46;20417;-76
2022/11/23 09:56:41;;;;;;;11.53;4.97;;;14.50;44.70;;;;;;2616682;54;20387;-78
2022/11/23 10:02:32;;;;;;;9.30;4.77;;;14.90;36.50;;;;;;2616098;54;20500;-77
2022/11/23 10:28:05;;;;;;;16.97;7.13;;;14.20;39.30;;;;;;2614765;54;20534;-76
2022/11/23 10:34:07;;;;;;;6.53;5.70;;;13.80;38.40;;;;;;2614409;54;20400;-77
2022/11/23 10:39:54;;;;;;;10.87;7.20;;;15.30;37.90;;;;;;2615813;54;20395;-78
2022/11/23 10:45:41;;;;;;;9.63;6.60;;;15.70;32.30;;;;;;2616417;54;20130;-77
2022/11/23 10:51:31;;;;;;;8.33;5.63;;;14.60;36.20;;;;;;2615787;54;20151;-78
2022/11/23 10:57:32;;;;;;;8.03;5.97;;;15.80;34.60;;;;;;2616335;39;20903;-78
2022/11/23 11:03:23;;;;;;;6.97;5.63;;;14.70;32.50;;;;;;2616011;54;20973;-78
2022/11/23 11:19:27;;;;;;;11.90;4.97;;;15.00;35.00;;;;;;2615790;54;20419;-79
2022/11/23 11:25:35;;;;;;;6.10;5.50;;;15.30;30.00;;;;;;2616192;54;20376;-78
2022/11/23 11:45:18;;;;;;;5.80;5.40;;;14.20;30.00;;;;;;2617091;54;21159;-79
2022/11/23 11:57:46;;;;;;;10.80;6.00;;;15.30;29.70;;;;;;2617682;54;20379;-76
2022/11/23 12:09:54;;;;;;;10.70;6.80;;;14.60;28.30;;;;;;2617994;54;20400;-78
2022/11/23 12:15:46;;;;;;;7.43;6.07;;;15.00;30.90;;;;;;2616720;54;20379;-77
2022/11/23 12:28:05;;;;;;;8.73;7.07;;;12.30;50.50;;;;;;2616876;54;20391;-78
2022/11/23 12:40:33;;;;;;;11.03;6.80;;;13.70;33.10;;;;;;2617052;54;20416;-79
2022/11/23 12:46:32;;;;;;;11.50;6.90;;;11.80;51.00;;;;;;2616589;54;20411;-79
2022/11/23 12:58:45;;;;;;;9.83;6.20;;;11.70;45.70;;;;;;2616777;54;20378;-79
2022/11/23 13:17:49;;;;;;;6.23;5.73;;;14.80;30.30;;;;;;2616971;54;20396;-79
2022/11/23 13:23:38;;;;;;;11.80;6.30;;;14.40;30.80;;;;;;2618353;39;20804;-78
2022/11/23 13:29:50;;;;;;;9.27;6.67;;;15.00;29.60;;;;;;2618847;39;20748;-81
2022/11/23 13:35:41;;;;;;;7.23;6.53;;;14.50;31.00;;;;;;2618491;54;20514;-79
2022/11/23 13:41:41;;;;;;;9.80;6.47;;;13.40;34.40;;;;;;2617899;54;20442;-79
2022/11/23 13:47:29;;;;;;;15.70;6.70;;;12.50;41.50;;;;;;2618232;54;20958;-80
2022/11/23 13:53:21;;;;;;;6.93;6.43;;;12.30;45.20;;;;;;2618513;39;20534;-79
2022/11/23 13:59:26;;;;;;;7.93;7.10;;;11.80;46.50;;;;;;2617641;54;20362;-80
2022/11/23 14:05:54;;;;;;;7.33;6.60;;;12.20;42.00;;;;;;2618105;54;20423;-79
2022/11/23 14:41:44;;;;;;;6.50;5.70;;;10.00;78.90;;;;;;2618182;54;20407;-79
2022/11/23 14:44:13;;;;;;;9.80;6.73;;;9.90;84.60;;;;;;2617452;47;20395;-79
2022/11/23 14:50:04;;;;;;;6.73;6.13;;;9.80;87.60;;;;;;2618185;54;20878;-78
2022/11/23 14:55:53;;;;;;;7.57;6.70;;;9.70;90.80;;;;;;2618842;54;20469;-79
2022/11/23 15:08:11;;;;;;;7.60;7.10;;;9.50;96.50;;;;;;2618558;54;20418;-79
2022/11/23 15:11:14;;;;;;;7.60;6.80;;;9.50;97.10;;;;;;2617947;39;20821;-80
2022/11/23 15:13:44;;;;;;;8.07;6.97;;;9.50;97.70;;;;;;2617928;54;20403;-80
2022/11/23 15:19:31;;;;;;;7.30;6.60;;;9.60;96.10;;;;;;2617553;54;20457;-79
2022/11/23 15:25:18;;;;;;;8.97;6.67;;;9.60;96.00;;;;;;2617297;54;20167;-79
2022/11/23 15:38:01;;;;;;;6.30;5.73;;;9.70;96.00;;;;;;2616826;54;20940;-78
2022/11/23 15:43:55;;;;;;;6.80;6.10;;;9.70;95.50;;;;;;2616063;54;20530;-79
2022/11/23 15:49:43;;;;;;;10.20;7.17;;;9.70;94.90;;;;;;2617220;54;20492;-78
2022/11/23 15:55:33;;;;;;;5.60;5.10;;;9.70;96.90;;;;;;2616738;54;20487;-79
2022/11/23 16:01:21;;;;;;;6.70;5.13;;;9.60;99.90;;;;;;2616518;54;20451;-77
2022/11/23 16:07:22;;;;;;;6.43;5.80;;;9.60;99.90;;;;;;2616736;54;20453;-79
2022/11/23 16:17:22;;;;;;;6.10;5.60;;;9.60;99.90;;;;;;2616913;54;20414;-79
2022/11/23 16:29:29;;;;;;;7.23;4.93;;;9.40;99.90;;;;;;2616642;54;20383;-78
2022/11/23 16:35:19;;;;;;;5.77;4.43;;;9.10;99.90;;;;;;2616855;39;20855;-78
2022/11/23 16:41:07;;;;;;;4.97;3.63;;;8.90;99.90;;;;;;2616650;54;20374;-80
2022/11/23 16:47:34;;;;;;;7.10;3.40;;;8.70;99.90;;;;;;2617110;54;20525;-78
2022/11/23 16:50:55;;;;;;;6.33;3.83;;;8.60;99.90;;;;;;2616834;46;20422;-79
2022/11/23 16:56:43;;;;;;;5.50;3.07;;;8.50;99.90;;;;;;2615081;54;20378;-77
2022/11/23 17:02:31;;;;;;;6.70;3.37;;;8.40;99.90;;;;;;2615515;54;20418;-77
2022/11/23 17:11:44;;;;;;;6.37;3.40;;;8.20;99.90;;;;;;2615201;54;20999;-77
2022/11/23 17:17:31;;;;;;;6.13;3.47;;;8.10;99.90;;;;;;2614543;54;20395;-75
2022/11/23 17:23:21;;;;;;;7.10;3.03;;;8.00;99.90;;;;;;2614538;39;20504;-75
2022/11/23 17:29:13;;;;;;;5.03;3.43;;;8.00;99.90;;;;;;2617334;39;20974;-74
2022/11/23 17:35:01;;;;;;;9.60;4.20;;;8.00;99.90;;;;;;2617685;39;20559;-76
2022/11/23 17:40:52;;;;;;;7.40;3.60;;;8.00;99.90;;;;;;2615899;54;20150;-75
2022/11/23 17:46:40;;;;;;;8.67;3.60;;;8.00;99.90;;;;;;2616801;54;20491;-75
2022/11/23 17:52:28;;;;;;;4.53;3.37;;;7.90;99.90;;;;;;2615075;54;20412;-76
2022/11/23 17:58:16;;;;;;;3.90;2.57;;;7.80;99.90;;;;;;2616189;54;20162;-78
2022/11/23 18:04:05;;;;;;;3.83;3.03;;;7.80;99.90;;;;;;2615445;54;20154;-76
2022/11/23 18:09:55;;;;;;;3.63;2.97;;;7.80;99.90;;;;;;2616418;39;21040;-76
2022/11/23 18:15:43;;;;;;;7.97;3.20;;;7.90;99.90;;;;;;2616617;54;20395;-76
2022/11/23 18:21:30;;;;;;;6.40;2.60;;;7.90;99.90;;;;;;2616427;54;20395;-77
2022/11/23 18:27:18;;;;;;;2.57;1.93;;;7.80;99.90;;;;;;2615259;54;20130;-76
2022/11/23 18:33:07;;;;;;;4.00;2.37;;;7.80;99.90;;;;;;2614154;54;20161;-76
2022/11/23 18:38:55;;;;;;;2.57;2.20;;;7.70;99.90;;;;;;2615593;54;20489;-77
2022/11/23 18:44:43;;;;;;;4.90;2.70;;;7.70;99.90;;;;;;2614460;54;20382;-76
2022/11/23 18:47:08;;;;;;;6.20;2.83;;;7.70;99.90;;;;;;2614654;47;20956;-78
2022/11/23 18:49:34;;;;;;;4.90;2.90;;;7.80;99.90;;;;;;2616029;54;20166;-77
2022/11/23 18:55:22;;;;;;;4.03;2.93;;;7.70;99.90;;;;;;2616586;39;20406;-76
2022/11/23 19:01:11;;;;;;;8.13;4.13;;;7.80;99.90;;;;;;2615658;39;20533;-76
2022/11/23 19:06:59;;;;;;;4.53;3.30;;;7.70;99.90;;;;;;2613111;54;21006;-75
2022/11/23 19:12:47;;;;;;;3.97;2.50;;;7.70;99.90;;;;;;2613373;54;20122;-75
2022/11/23 19:18:35;;;;;;;6.47;3.10;;;7.70;99.90;;;;;;2613884;54;20138;-78
2022/11/23 19:24:23;;;;;;;5.27;4.43;;;7.80;99.90;;;;;;2615610;54;20747;-76
2022/11/23 19:30:13;;;;;;;4.07;3.43;;;7.80;99.90;;;;;;2614342;54;20133;-76
2022/11/23 19:36:09;;;;;;;7.87;3.70;;;7.90;99.90;;;;;;2613901;54;20433;-77
2022/11/23 19:41:56;;;;;;;7.00;3.63;;;7.90;99.90;;;;;;2614919;54;20935;-78
2022/11/23 19:51:49;;;;;;;10.00;4.60;;;8.00;99.90;;;;;;2614639;54;20410;-77
2022/11/23 19:57:37;;;;;;;6.00;4.07;;;8.10;99.90;;;;;;2616112;39;20813;-76
2022/11/23 20:03:25;;;;;;;9.27;3.67;;;8.30;99.90;;;;;;2615425;54;20134;-78
2022/11/23 20:09:15;;;;;;;5.17;3.80;;;8.20;99.90;;;;;;2616050;54;20138;-77
2022/11/23 20:15:03;;;;;;;9.43;6.37;;;8.10;99.90;;;;;;2616627;54;20925;-79
2022/11/23 20:20:52;;;;;;;10.03;5.20;;;8.10;99.90;;;;;;2616137;54;20411;-77
2022/11/23 20:26:41;;;;;;;9.20;3.90;;;8.20;99.90;;;;;;2615376;54;20419;-78
2022/11/23 20:32:29;;;;;;;6.77;5.93;;;8.30;99.90;;;;;;2614034;54;20382;-77
2022/11/23 20:38:16;;;;;;;11.27;4.30;;;8.50;99.90;;;;;;2615342;39;20556;-76
2022/11/23 20:50:50;;;;;;;7.60;4.57;;;8.30;99.90;;;;;;2614237;54;20419;-81
2022/11/23 20:56:38;;;;;;;7.80;4.20;;;8.30;99.90;;;;;;2613243;54;20118;-81
2022/11/23 21:02:28;;;;;;;8.37;4.43;;;8.20;99.90;;;;;;2614934;54;20435;-81
2022/11/23 21:08:24;;;;;;;9.00;5.90;;;8.00;99.90;;;;;;2613755;54;21403;-82
2022/11/23 21:14:17;;;;;;;9.43;4.80;;;8.20;99.90;;;;;;2614801;39;20767;-80
2022/11/23 21:20:05;;;;;;;22.47;6.37;;;8.10;99.90;;;;;;2614930;54;20880;-80
2022/11/23 21:25:53;;;;;;;12.97;6.87;;;8.10;99.90;;;;;;2614812;54;20396;-80
2022/11/23 21:31:43;;;;;;;13.53;9.50;;;8.10;99.90;;;;;;2614277;54;21030;-82
2022/11/23 21:37:31;;;;;;;12.23;6.30;;;8.00;99.90;;;;;;2614696;46;20435;-80
2022/11/23 21:43:19;;;;;;;11.00;6.77;;;8.00;99.90;;;;;;2614376;54;20135;-82
2022/11/23 21:52:35;;;;;;;16.10;8.10;;;8.20;99.90;;;;;;2615031;54;20374;-81
2022/11/23 21:58:23;;;;;;;7.90;4.70;;;8.00;99.90;;;;;;2615640;54;20977;-81
2022/11/23 22:04:14;;;;;;;9.33;3.47;;;8.10;99.90;;;;;;2616178;54;20166;-81
2022/11/23 22:10:01;;;;;;;11.13;4.30;;;8.20;99.90;;;;;;2615562;54;20423;-82
2022/11/23 22:15:50;;;;;;;14.00;5.80;;;8.20;99.90;;;;;;2615289;54;20379;-81
2022/11/23 22:21:39;;;;;;;13.13;4.60;;;8.20;99.90;;;;;;2617161;46;20515;-81
2022/11/23 22:27:27;;;;;;;9.73;4.23;;;8.30;99.90;;;;;;2619288;54;20609;-81
2022/11/23 22:33:15;;;;;;;11.03;3.90;;;8.30;99.90;;;;;;2618748;54;20126;-80
2022/11/23 22:39:04;;;;;;;9.87;5.80;;;8.30;99.90;;;;;;2618320;54;20154;-81
2022/11/23 22:44:52;;;;;;;16.90;4.60;;;8.30;99.90;;;;;;2615236;54;20392;-82
2022/11/23 22:48:03;;;;;;;17.23;5.93;;;8.30;99.90;;;;;;2615106;39;20949;-80
2022/11/23 22:50:28;;;;;;;9.13;4.73;;;8.30;99.90;;;;;;2615192;47;20198;-80
2022/11/23 22:56:18;;;;;;;15.37;5.03;;;8.30;99.90;;;;;;2616182;54;20180;-81
2022/11/23 22:58:45;;;;;;;11.37;4.07;;;8.30;99.90;;;;;;2614917;47;20522;-82
2022/11/23 23:01:14;;;;;;;8.73;3.43;;;8.30;99.90;;;;;;2615434;39;20804;-82
2022/11/23 23:07:02;;;;;;;19.57;5.33;;;8.40;99.90;;;;;;2615832;54;20403;-81
2022/11/23 23:12:51;;;;;;;15.70;5.10;;;8.50;99.90;;;;;;2616806;39;20514;-82
2022/11/23 23:18:42;;;;;;;8.80;5.20;;;8.70;99.90;;;;;;2616492;46;20443;-80
2022/11/23 23:24:30;;;;;;;8.40;4.13;;;8.80;99.90;;;;;;2616457;54;20435;-81
2022/11/23 23:30:18;;;;;;;18.03;3.60;;;9.00;99.90;;;;;;2615712;54;20391;-81
2022/11/23 23:36:09;;;;;;;12.63;4.10;;;9.00;99.90;;;;;;2616781;54;20464;-82
2022/11/23 23:41:57;;;;;;;11.80;3.13;;;9.10;99.90;;;;;;2616737;54;20387;-80
2022/11/23 23:47:45;;;;;;;6.27;4.17;;;9.00;99.90;;;;;;2617139;54;20158;-81
2022/11/23 23:53:34;;;;;;;13.60;4.20;;;9.00;99.90;;;;;;2616471;46;20150;-81
2022/11/23 23:59:22;;;;;;;10.90;4.07;;;9.00;99.90;;;;;;2617488;54;20411;-81
